Lakenheath, United Kingdom
Current Conditions -  °F | °C
As of 9:34 PM on Sunday 21 Dec 2014 (Local Time) from EGUL Reporting Station
Overcast Overcast  
Wind Chill: 52°   Ceiling: 1500
Heat Index: 52°   Visibility: 6mi
Dew Point: 52°   Wind: 18mph
Humidity: 100%   Direction: 230°SW
Pressure: 30.05"   Gusts: 26mph
Location:  52.42°N, 0.52°E
Report Text: EGUL 212134Z AUTO 23016G23KT 9999 OVC015 11/11 A3005 RMK AO2
Loading
Personal Weather Stations






























Interactive Weather Map New forecast layout! Learn more

10-Day Weather Forecast

Advertisements
Track Severe Weather on mobile